createdAt,value
2023-02-12T00:00:54.441Z,1026.4
2023-02-12T00:01:57.846Z,1026.5
2023-02-12T00:03:00.515Z,1026.5
2023-02-12T00:04:03.510Z,1026.5
2023-02-12T00:05:07.294Z,1026.5
2023-02-12T00:06:11.490Z,1026.5
2023-02-12T00:07:18.821Z,1026.5
2023-02-12T00:08:21.916Z,1026.6
2023-02-12T00:09:24.158Z,1026.5
2023-02-12T00:10:28.238Z,1026.6
2023-02-12T00:11:31.399Z,1026.6
2023-02-12T00:12:34.244Z,1026.6
2023-02-12T00:13:37.883Z,1026.6
2023-02-12T00:14:41.421Z,1026.6
2023-02-12T00:15:44.705Z,1026.6
2023-02-12T00:16:48.548Z,1026.6
2023-02-12T00:17:51.314Z,1026.6
2023-02-12T00:18:54.656Z,1026.6
2023-02-12T00:19:58.070Z,1026.6
2023-02-12T00:21:01.786Z,1026.5
2023-02-12T00:22:05.214Z,1026.6
2023-02-12T00:23:08.220Z,1026.6
2023-02-12T00:24:11.584Z,1026.6
2023-02-12T00:25:14.157Z,1026.6
2023-02-12T00:26:17.631Z,1026.6
2023-02-12T00:27:20.526Z,1026.5
2023-02-12T00:28:23.834Z,1026.6
2023-02-12T00:29:26.917Z,1026.6
2023-02-12T00:30:30.163Z,1026.6
2023-02-12T00:31:33.758Z,1026.6
2023-02-12T00:32:37.129Z,1026.6
2023-02-12T00:33:40.558Z,1026.6
2023-02-12T00:34:43.714Z,1026.7
2023-02-12T00:35:46.483Z,1026.7
2023-02-12T00:36:50.489Z,1026.7
2023-02-12T00:37:53.584Z,1026.7
2023-02-12T00:38:56.375Z,1026.8
2023-02-12T00:39:59.452Z,1026.8
2023-02-12T00:41:03.219Z,1026.8
2023-02-12T00:42:06.673Z,1026.8
2023-02-12T00:43:09.865Z,1026.8
2023-02-12T00:44:13.331Z,1026.8
2023-02-12T00:45:16.412Z,1026.7
2023-02-12T00:46:20.165Z,1026.7
2023-02-12T00:47:23.997Z,1026.7
2023-02-12T00:48:27.359Z,1026.7
2023-02-12T00:49:30.890Z,1026.7
2023-02-12T00:50:34.277Z,1026.7
2023-02-12T00:51:37.681Z,1026.7
2023-02-12T00:52:41.194Z,1026.7
2023-02-12T00:53:44.256Z,1026.7
2023-02-12T00:54:47.302Z,1026.7
2023-02-12T00:55:50.589Z,1026.8
2023-02-12T00:56:53.659Z,1026.8
2023-02-12T00:57:57.294Z,1026.9
2023-02-12T00:59:00.353Z,1027
2023-02-12T01:00:03.374Z,1027
2023-02-12T01:01:06.792Z,1027
2023-02-12T01:02:10.248Z,1027
2023-02-12T01:03:13.875Z,1027.1
2023-02-12T01:04:16.764Z,1027
2023-02-12T01:05:20.319Z,1027
2023-02-12T01:06:23.427Z,1027
2023-02-12T01:07:26.551Z,1027
2023-02-12T01:08:29.940Z,1027
2023-02-12T01:09:33.025Z,1026.9
2023-02-12T01:10:36.498Z,1026.9
2023-02-12T01:11:39.246Z,1026.9
2023-02-12T01:12:42.706Z,1026.9
2023-02-12T01:13:46.209Z,1027
2023-02-12T01:14:49.589Z,1027
2023-02-12T01:15:53.642Z,1027.1
2023-02-12T01:16:58.763Z,1027.1
2023-02-12T01:18:01.626Z,1027.1
2023-02-12T01:19:04.405Z,1027.1
2023-02-12T01:20:07.649Z,1027.1
2023-02-12T01:21:10.466Z,1027.2
2023-02-12T01:22:13.610Z,1027.2
2023-02-12T01:23:16.617Z,1027.2
2023-02-12T01:24:19.805Z,1027.2
2023-02-12T01:25:22.606Z,1027.2
2023-02-12T01:26:26.081Z,1027.3
2023-02-12T01:27:29.601Z,1027.2
2023-02-12T01:28:32.718Z,1027.2
2023-02-12T01:29:36.092Z,1027.2
2023-02-12T01:30:38.864Z,1027.2
2023-02-12T01:31:43.028Z,1027.2
2023-02-12T01:32:46.691Z,1027.2
2023-02-12T01:33:50.085Z,1027.1
2023-02-12T01:34:52.932Z,1027.1
2023-02-12T01:35:56.668Z,1027.1
2023-02-12T01:37:00.767Z,1027.1
2023-02-12T01:38:03.838Z,1027.1
2023-02-12T01:39:06.354Z,1027.1
2023-02-12T01:40:10.173Z,1027.1
2023-02-12T01:41:13.825Z,1027.2
2023-02-12T01:42:16.889Z,1027.1
2023-02-12T01:43:20.209Z,1027.1
2023-02-12T01:44:23.214Z,1027.1
2023-02-12T01:45:26.415Z,1027.1
2023-02-12T01:46:30.030Z,1027.1
2023-02-12T01:47:33.782Z,1027.2
2023-02-12T01:48:36.878Z,1027.1
2023-02-12T01:49:40.327Z,1027.1
2023-02-12T01:50:43.406Z,1027.1
2023-02-12T01:51:46.881Z,1027.1
2023-02-12T01:52:50.551Z,1027.1
2023-02-12T01:53:53.909Z,1027.1
2023-02-12T01:54:57.775Z,1027.2
2023-02-12T01:56:01.216Z,1027.1
2023-02-12T01:57:04.989Z,1027.2
2023-02-12T01:58:08.121Z,1027.1
2023-02-12T01:59:11.174Z,1027.2
2023-02-12T02:00:13.893Z,1027.2
2023-02-12T02:01:17.697Z,1027.2
2023-02-12T02:02:21.156Z,1027.2
2023-02-12T02:03:24.374Z,1027.2
2023-02-12T02:04:28.092Z,1027.2
2023-02-12T02:05:30.888Z,1027.2
2023-02-12T02:06:33.417Z,1027.2
2023-02-12T02:07:36.507Z,1027.2
2023-02-12T02:08:39.841Z,1027.2
2023-02-12T02:09:43.193Z,1027.2
2023-02-12T02:10:46.289Z,1027.2
2023-02-12T02:11:49.765Z,1027.2
2023-02-12T02:12:52.568Z,1027.2
2023-02-12T02:13:55.460Z,1027.2
2023-02-12T02:14:59.173Z,1027.2
2023-02-12T02:16:02.425Z,1027.3
2023-02-12T02:17:06.411Z,1027.3
2023-02-12T02:18:10.487Z,1027.3
2023-02-12T02:19:13.848Z,1027.3
2023-02-12T02:20:16.591Z,1027.3
2023-02-12T02:21:19.686Z,1027.3
2023-02-12T02:22:22.445Z,1027.2
2023-02-12T02:23:25.742Z,1027.2
2023-02-12T02:24:29.445Z,1027.2
2023-02-12T02:25:32.555Z,1027.3
2023-02-12T02:26:35.549Z,1027.2
2023-02-12T02:27:39.339Z,1027.3
2023-02-12T02:28:42.310Z,1027.3
2023-02-12T02:29:46.073Z,1027.3
2023-02-12T02:30:48.876Z,1027.3
2023-02-12T02:31:52.479Z,1027.3
2023-02-12T02:32:56.420Z,1027.3
2023-02-12T02:33:59.607Z,1027.3
2023-02-12T02:35:03.040Z,1027.3
2023-02-12T02:36:06.148Z,1027.3
2023-02-12T02:37:09.418Z,1027.3
2023-02-12T02:38:12.758Z,1027.3
2023-02-12T02:39:15.628Z,1027.3
2023-02-12T02:40:18.419Z,1027.2
2023-02-12T02:41:21.205Z,1027.2
2023-02-12T02:42:24.373Z,1027.3
2023-02-12T02:43:27.505Z,1027.2
2023-02-12T02:44:30.281Z,1027.2
2023-02-12T02:45:33.354Z,1027.2
2023-02-12T02:46:36.022Z,1027.2
2023-02-12T02:47:39.091Z,1027.2
2023-02-12T02:48:42.773Z,1027.3
2023-02-12T02:49:45.604Z,1027.3
2023-02-12T02:50:49.289Z,1027.4
2023-02-12T02:51:52.491Z,1027.3
2023-02-12T02:52:55.609Z,1027.3
2023-02-12T02:53:58.887Z,1027.3
2023-02-12T02:55:02.100Z,1027.3
2023-02-12T02:56:05.633Z,1027.3
2023-02-12T02:57:08.714Z,1027.4
2023-02-12T02:58:12.353Z,1027.3
2023-02-12T02:59:15.580Z,1027.3
2023-02-12T03:00:18.454Z,1027.3
2023-02-12T03:01:21.424Z,1027.3
2023-02-12T03:02:24.417Z,1027.3
2023-02-12T03:03:27.391Z,1027.3
2023-02-12T03:04:30.800Z,1027.3
2023-02-12T03:05:34.313Z,1027.3
2023-02-12T03:06:38.018Z,1027.3
2023-02-12T03:07:41.131Z,1027.2
2023-02-12T03:08:43.863Z,1027.2
2023-02-12T03:09:47.241Z,1027.3
2023-02-12T03:10:51.034Z,1027.2
2023-02-12T03:11:53.749Z,1027.3
2023-02-12T03:12:56.712Z,1027.3
2023-02-12T03:13:59.866Z,1027.3
2023-02-12T03:15:03.628Z,1027.3
2023-02-12T03:16:06.527Z,1027.3
2023-02-12T03:17:10.722Z,1027.3
2023-02-12T03:18:13.677Z,1027.3
2023-02-12T03:19:17.356Z,1027.3
2023-02-12T03:20:20.839Z,1027.3
2023-02-12T03:21:24.175Z,1027.4
2023-02-12T03:22:27.219Z,1027.3
2023-02-12T03:23:30.298Z,1027.4
2023-02-12T03:24:34.102Z,1027.4
2023-02-12T03:25:37.512Z,1027.4
2023-02-12T03:26:41.519Z,1027.4
2023-02-12T03:27:44.293Z,1027.4
2023-02-12T03:28:48.026Z,1027.5
2023-02-12T03:29:50.501Z,1027.5
2023-02-12T03:30:53.813Z,1027.5
2023-02-12T03:31:57.524Z,1027.5
2023-02-12T03:33:01.688Z,1027.5
2023-02-12T03:34:04.871Z,1027.5
2023-02-12T03:35:07.673Z,1027.4
2023-02-12T03:36:10.785Z,1027.4
2023-02-12T03:37:14.161Z,1027.4
2023-02-12T03:38:17.600Z,1027.4
2023-02-12T03:39:21.056Z,1027.5
2023-02-12T03:40:25.124Z,1027.5
2023-02-12T03:41:28.496Z,1027.5
2023-02-12T03:42:31.785Z,1027.5
2023-02-12T03:43:35.412Z,1027.5
2023-02-12T03:44:38.855Z,1027.5
2023-02-12T03:45:42.060Z,1027.5
2023-02-12T03:46:46.190Z,1027.5
2023-02-12T03:47:49.705Z,1027.6
2023-02-12T03:48:52.992Z,1027.6
2023-02-12T03:49:56.171Z,1027.5
2023-02-12T03:50:59.668Z,1027.5
2023-02-12T03:52:03.193Z,1027.6
2023-02-12T03:53:06.682Z,1027.5
2023-02-12T03:54:10.115Z,1027.5
2023-02-12T03:55:12.845Z,1027.5
2023-02-12T03:56:15.657Z,1027.5
2023-02-12T03:57:19.374Z,1027.5
2023-02-12T03:58:22.787Z,1027.6
2023-02-12T03:59:25.773Z,1027.6
2023-02-12T04:00:28.573Z,1027.6
2023-02-12T04:01:32.435Z,1027.6
2023-02-12T04:02:36.088Z,1027.6
2023-02-12T04:03:39.440Z,1027.7
2023-02-12T04:04:42.889Z,1027.7
2023-02-12T04:05:46.138Z,1027.8
2023-02-12T04:06:49.421Z,1027.7
2023-02-12T04:07:53.210Z,1027.7
2023-02-12T04:08:56.555Z,1027.8
2023-02-12T04:09:59.304Z,1027.8
2023-02-12T04:11:01.875Z,1027.8
2023-02-12T04:12:05.370Z,1027.8
2023-02-12T04:13:09.082Z,1027.8
2023-02-12T04:14:12.794Z,1027.8
2023-02-12T04:15:16.017Z,1027.8
2023-02-12T04:16:19.958Z,1027.8
2023-02-12T04:17:24.282Z,1027.9
2023-02-12T04:18:28.691Z,1027.8
2023-02-12T04:19:31.691Z,1027.8
2023-02-12T04:20:34.983Z,1027.8
2023-02-12T04:21:38.055Z,1027.9
2023-02-12T04:22:41.172Z,1027.9
2023-02-12T04:23:44.447Z,1027.9
2023-02-12T04:24:48.125Z,1027.9
2023-02-12T04:25:50.928Z,1027.9
2023-02-12T04:26:53.918Z,1027.9
2023-02-12T04:27:57.592Z,1027.9
2023-02-12T04:29:01.586Z,1027.9
2023-02-12T04:30:04.620Z,1028
2023-02-12T04:31:08.099Z,1027.9
2023-02-12T04:32:11.435Z,1027.9
2023-02-12T04:33:14.527Z,1028
2023-02-12T04:34:17.783Z,1028
2023-02-12T04:35:21.161Z,1028
2023-02-12T04:36:24.506Z,1028
2023-02-12T04:37:27.932Z,1028
2023-02-12T04:38:30.907Z,1028
2023-02-12T04:39:34.416Z,1028
2023-02-12T04:40:38.184Z,1028
2023-02-12T04:41:41.828Z,1028
2023-02-12T04:42:44.957Z,1028
2023-02-12T04:43:48.333Z,1028
2023-02-12T04:44:51.093Z,1028
2023-02-12T04:45:54.747Z,1028.1
2023-02-12T04:46:59.745Z,1028
2023-02-12T04:48:02.854Z,1028.1
2023-02-12T04:49:05.647Z,1028.1
2023-02-12T04:50:09.378Z,1028.1
2023-02-12T04:51:12.190Z,1028.1
2023-02-12T04:52:15.256Z,1028.2
2023-02-12T04:53:17.876Z,1028.1
2023-02-12T04:54:21.349Z,1028.1
2023-02-12T04:55:24.719Z,1028.1
2023-02-12T04:56:27.948Z,1028.2
2023-02-12T04:57:30.446Z,1028.2
2023-02-12T04:58:34.038Z,1028.2
2023-02-12T04:59:37.505Z,1028.1
2023-02-12T05:00:40.693Z,1028.1
2023-02-12T05:01:43.829Z,1028.2
2023-02-12T05:02:47.865Z,1028.2
2023-02-12T05:03:50.849Z,1028.2
2023-02-12T05:04:53.880Z,1028.2
2023-02-12T05:05:58.397Z,1028.2
2023-02-12T05:07:01.832Z,1028.2
2023-02-12T05:08:05.570Z,1028.2
2023-02-12T05:09:08.364Z,1028.2
2023-02-12T05:10:11.428Z,1028.1
2023-02-12T05:11:15.509Z,1028.1
2023-02-12T05:12:18.623Z,1028.1
2023-02-12T05:13:21.992Z,1028.2
2023-02-12T05:14:25.332Z,1028.1
2023-02-12T05:15:28.661Z,1028.2
2023-02-12T05:16:31.486Z,1028.2
2023-02-12T05:17:34.387Z,1028.2
2023-02-12T05:18:37.389Z,1028.2
2023-02-12T05:19:40.028Z,1028.2
2023-02-12T05:20:43.009Z,1028.2
2023-02-12T05:21:46.744Z,1028.2
2023-02-12T05:22:50.220Z,1028.2
2023-02-12T05:23:52.949Z,1028.2
2023-02-12T05:24:56.303Z,1028.2
2023-02-12T05:25:59.689Z,1028.2
2023-02-12T05:27:03.176Z,1028.2
2023-02-12T05:28:06.350Z,1028.2
2023-02-12T05:29:09.771Z,1028.3
2023-02-12T05:30:12.200Z,1028.2
2023-02-12T05:31:15.695Z,1028.2
2023-02-12T05:32:24.070Z,1028.2
2023-02-12T05:33:27.090Z,1028.2
2023-02-12T05:34:30.745Z,1028.2
2023-02-12T05:35:33.766Z,1028.3
2023-02-12T05:36:36.471Z,1028.3
2023-02-12T05:37:39.879Z,1028.3
2023-02-12T05:38:42.927Z,1028.3
2023-02-12T05:39:45.911Z,1028.2
2023-02-12T05:40:49.181Z,1028.2
2023-02-12T05:41:52.268Z,1028.3
2023-02-12T05:42:55.746Z,1028.3
2023-02-12T05:43:59.145Z,1028.3
2023-02-12T05:45:02.056Z,1028.3
2023-02-12T05:46:04.911Z,1028.3
2023-02-12T05:47:08.621Z,1028.3
2023-02-12T05:48:11.135Z,1028.3
2023-02-12T05:49:14.846Z,1028.4
2023-02-12T05:50:18.015Z,1028.4
2023-02-12T05:51:20.739Z,1028.4
2023-02-12T05:52:24.978Z,1028.4
2023-02-12T05:53:28.103Z,1028.4
2023-02-12T05:54:31.162Z,1028.4
2023-02-12T05:55:34.027Z,1028.4
2023-02-12T05:56:37.120Z,1028.4
2023-02-12T05:57:40.626Z,1028.4
2023-02-12T05:58:44.372Z,1028.4
2023-02-12T05:59:47.496Z,1028.4
2023-02-12T06:00:50.502Z,1028.4
2023-02-12T06:01:53.319Z,1028.4
2023-02-12T06:02:56.908Z,1028.4
2023-02-12T06:04:00.388Z,1028.4
2023-02-12T06:05:04.145Z,1028.4
2023-02-12T06:06:07.526Z,1028.4
2023-02-12T06:07:10.304Z,1028.4
2023-02-12T06:08:14.300Z,1028.5
2023-02-12T06:09:18.146Z,1028.5
2023-02-12T06:10:21.553Z,1028.5
2023-02-12T06:11:24.642Z,1028.5
2023-02-12T06:12:27.942Z,1028.5
2023-02-12T06:13:30.434Z,1028.5
2023-02-12T06:14:33.920Z,1028.5
2023-02-12T06:15:37.733Z,1028.5
2023-02-12T06:16:40.610Z,1028.5
2023-02-12T06:17:44.305Z,1028.5
2023-02-12T06:18:47.144Z,1028.5
2023-02-12T06:19:50.580Z,1028.6
2023-02-12T06:20:53.908Z,1028.5
2023-02-12T06:21:56.345Z,1028.6
2023-02-12T06:22:59.526Z,1028.6
2023-02-12T06:24:02.267Z,1028.6
2023-02-12T06:25:05.754Z,1028.6
2023-02-12T06:26:09.539Z,1028.6
2023-02-12T06:27:12.994Z,1028.6
2023-02-12T06:28:16.163Z,1028.6
2023-02-12T06:29:19.856Z,1028.6
2023-02-12T06:30:23.523Z,1028.6
2023-02-12T06:31:26.750Z,1028.5
2023-02-12T06:32:30.938Z,1028.6
2023-02-12T06:33:34.398Z,1028.6
2023-02-12T06:34:37.814Z,1028.6
2023-02-12T06:35:40.881Z,1028.6
2023-02-12T06:36:43.652Z,1028.7
2023-02-12T06:37:46.084Z,1028.6
2023-02-12T06:38:49.451Z,1028.6
2023-02-12T06:39:52.617Z,1028.6
2023-02-12T06:40:55.554Z,1028.6
2023-02-12T06:41:58.619Z,1028.6
2023-02-12T06:43:01.451Z,1028.7
2023-02-12T06:44:04.632Z,1028.7
2023-02-12T06:45:08.102Z,1028.8
2023-02-12T06:46:11.312Z,1028.8
2023-02-12T06:47:14.884Z,1028.8
2023-02-12T06:48:18.187Z,1028.8
2023-02-12T06:49:20.898Z,1028.8
2023-02-12T06:50:24.558Z,1028.8
2023-02-12T06:51:27.567Z,1028.8
2023-02-12T06:52:30.662Z,1028.8
2023-02-12T06:53:34.356Z,1028.8
2023-02-12T06:54:36.609Z,1028.8
2023-02-12T06:55:39.571Z,1028.8
2023-02-12T06:56:42.773Z,1028.8
2023-02-12T06:57:46.164Z,1028.9
2023-02-12T06:58:49.341Z,1028.9
2023-02-12T06:59:52.508Z,1028.9
2023-02-12T07:00:56.287Z,1028.9
2023-02-12T07:02:00.105Z,1029
2023-02-12T07:03:03.297Z,1029
2023-02-12T07:04:06.556Z,1029
2023-02-12T07:05:09.631Z,1029
2023-02-12T07:06:13.045Z,1029
2023-02-12T07:07:15.838Z,1029.1
2023-02-12T07:08:19.103Z,1029.1
2023-02-12T07:09:21.676Z,1029.1
2023-02-12T07:10:24.932Z,1029.1
2023-02-12T07:11:28.070Z,1029.1
2023-02-12T07:12:31.606Z,1029.1
2023-02-12T07:13:35.036Z,1029.1
2023-02-12T07:14:38.195Z,1029.1
2023-02-12T07:15:41.570Z,1029.1
2023-02-12T07:16:44.467Z,1029.1
2023-02-12T07:17:48.507Z,1029
2023-02-12T07:18:51.941Z,1029
2023-02-12T07:19:54.765Z,1029
2023-02-12T07:20:58.051Z,1029
2023-02-12T07:22:00.625Z,1029.1
2023-02-12T07:23:04.019Z,1029.1
2023-02-12T07:24:06.560Z,1029.1
2023-02-12T07:25:10.603Z,1029.1
2023-02-12T07:26:13.332Z,1029.1
2023-02-12T07:27:16.217Z,1029.2
2023-02-12T07:28:19.975Z,1029.2
2023-02-12T07:29:22.893Z,1029.2
2023-02-12T07:30:25.958Z,1029.2
2023-02-12T07:31:29.703Z,1029.3
2023-02-12T07:32:33.926Z,1029.2
2023-02-12T07:33:37.741Z,1029.3
2023-02-12T07:34:41.167Z,1029.3
2023-02-12T07:35:44.897Z,1029.3
2023-02-12T07:36:48.344Z,1029.3
2023-02-12T07:37:52.400Z,1029.2
2023-02-12T07:38:55.116Z,1029.2
2023-02-12T07:39:57.851Z,1029.2
2023-02-12T07:41:00.639Z,1029.2
2023-02-12T07:42:03.987Z,1029.3
2023-02-12T07:43:07.718Z,1029.3
2023-02-12T07:44:11.207Z,1029.3
2023-02-12T07:45:14.026Z,1029.3
2023-02-12T07:46:17.710Z,1029.4
2023-02-12T07:47:21.525Z,1029.3
2023-02-12T07:48:24.926Z,1029.4
2023-02-12T07:49:28.091Z,1029.4
2023-02-12T07:50:37.821Z,1029.4
2023-02-12T07:51:41.222Z,1029.4
2023-02-12T07:52:44.678Z,1029.4
2023-02-12T07:53:47.764Z,1029.4
2023-02-12T07:54:50.911Z,1029.4
2023-02-12T07:55:55.173Z,1029.5
2023-02-12T07:56:59.876Z,1029.4
2023-02-12T07:58:03.014Z,1029.5
2023-02-12T07:59:05.782Z,1029.5
2023-02-12T08:00:09.283Z,1029.4
2023-02-12T08:01:12.099Z,1029.5
2023-02-12T08:02:15.380Z,1029.5
2023-02-12T08:03:17.959Z,1029.5
2023-02-12T08:04:20.887Z,1029.5
2023-02-12T08:05:24.805Z,1029.5
2023-02-12T08:06:27.959Z,1029.5
2023-02-12T08:07:30.998Z,1029.5
2023-02-12T08:08:33.413Z,1029.5
2023-02-12T08:09:37.110Z,1029.5
2023-02-12T08:10:40.352Z,1029.6
2023-02-12T08:11:43.823Z,1029.6
2023-02-12T08:12:47.211Z,1029.6
2023-02-12T08:13:49.639Z,1029.6
2023-02-12T08:14:52.721Z,1029.6
2023-02-12T08:15:56.857Z,1029.7
2023-02-12T08:17:00.846Z,1029.7
2023-02-12T08:18:04.203Z,1029.7
2023-02-12T08:19:21.830Z,1029.7
2023-02-12T08:20:29.460Z,1029.7
2023-02-12T08:21:32.185Z,1029.7
2023-02-12T08:22:35.014Z,1029.7
2023-02-12T08:23:38.355Z,1029.7
2023-02-12T08:24:42.054Z,1029.7
2023-02-12T08:25:45.039Z,1029.7
2023-02-12T08:26:48.201Z,1029.8
2023-02-12T08:27:51.368Z,1029.7
2023-02-12T08:28:54.508Z,1029.7
2023-02-12T08:29:57.310Z,1029.7
2023-02-12T08:31:01.217Z,1029.7
2023-02-12T08:32:05.173Z,1029.8
2023-02-12T08:33:09.157Z,1029.8
2023-02-12T08:34:12.139Z,1029.8
2023-02-12T08:35:15.221Z,1029.8
2023-02-12T08:36:18.026Z,1029.8
2023-02-12T08:37:20.497Z,1029.8
2023-02-12T08:38:23.732Z,1029.8
2023-02-12T08:39:26.901Z,1029.8
2023-02-12T08:40:31.322Z,1029.8
2023-02-12T08:41:34.179Z,1029.8
2023-02-12T08:42:37.154Z,1029.8
2023-02-12T08:43:39.763Z,1029.8
2023-02-12T08:44:43.117Z,1029.8
2023-02-12T08:45:46.270Z,1029.8
2023-02-12T08:46:50.461Z,1029.8
2023-02-12T08:47:53.131Z,1029.7
2023-02-12T08:48:55.629Z,1029.7
2023-02-12T08:49:58.984Z,1029.7
2023-02-12T08:51:02.023Z,1029.6
2023-02-12T08:52:05.695Z,1029.7
2023-02-12T08:53:09.171Z,1029.6
2023-02-12T08:54:12.560Z,1029.6
2023-02-12T08:55:15.938Z,1029.6
2023-02-12T08:56:19.294Z,1029.6
2023-02-12T08:57:22.099Z,1029.6
2023-02-12T08:58:25.222Z,1029.6
2023-02-12T08:59:28.579Z,1029.7
2023-02-12T09:00:32.596Z,1029.7
2023-02-12T09:01:35.403Z,1029.7
2023-02-12T09:02:39.221Z,1029.7
2023-02-12T09:03:42.852Z,1029.7
2023-02-12T09:04:45.567Z,1029.7
2023-02-12T09:05:48.280Z,1029.8
2023-02-12T09:06:51.554Z,1029.8
2023-02-12T09:07:55.029Z,1029.8
2023-02-12T09:08:58.035Z,1029.8
2023-02-12T09:10:01.362Z,1029.8
2023-02-12T09:11:04.790Z,1029.8
2023-02-12T09:12:07.988Z,1029.7
2023-02-12T09:13:10.976Z,1029.7
2023-02-12T09:14:14.036Z,1029.7
2023-02-12T09:15:17.184Z,1029.7
2023-02-12T09:16:20.004Z,1029.7
2023-02-12T09:17:23.559Z,1029.7
2023-02-12T09:18:27.010Z,1029.7
2023-02-12T09:19:30.991Z,1029.8
2023-02-12T09:20:34.358Z,1029.8
2023-02-12T09:21:37.728Z,1029.8
2023-02-12T09:22:41.043Z,1029.8
2023-02-12T09:23:44.838Z,1029.7
2023-02-12T09:24:48.259Z,1029.7
2023-02-12T09:25:51.354Z,1029.8
2023-02-12T09:26:54.451Z,1029.8
2023-02-12T09:27:58.365Z,1029.7
2023-02-12T09:29:01.344Z,1029.8
2023-02-12T09:30:03.882Z,1029.8
2023-02-12T09:31:07.185Z,1029.8
2023-02-12T09:32:11.225Z,1029.8
2023-02-12T09:33:14.980Z,1029.8
2023-02-12T09:34:18.150Z,1029.8
2023-02-12T09:35:20.886Z,1029.8
2023-02-12T09:36:23.916Z,1029.9
2023-02-12T09:37:27.023Z,1029.8
2023-02-12T09:38:30.187Z,1029.8
2023-02-12T09:39:34.001Z,1029.9
2023-02-12T09:40:37.006Z,1029.9
2023-02-12T09:41:40.057Z,1029.9
2023-02-12T09:42:42.754Z,1029.9
2023-02-12T09:43:46.522Z,1029.9
2023-02-12T09:44:50.204Z,1029.8
2023-02-12T09:45:53.965Z,1029.9
2023-02-12T09:46:59.489Z,1029.9
2023-02-12T09:48:03.050Z,1029.8
2023-02-12T09:49:06.479Z,1029.9
2023-02-12T09:50:10.173Z,1029.9
2023-02-12T09:51:13.661Z,1029.9
2023-02-12T09:52:17.456Z,1029.9
2023-02-12T09:53:21.530Z,1029.9
2023-02-12T09:54:25.210Z,1029.9
2023-02-12T09:55:28.418Z,1030
2023-02-12T09:56:31.539Z,1030
2023-02-12T09:57:34.573Z,1029.9
2023-02-12T09:58:37.784Z,1029.9
2023-02-12T09:59:41.549Z,1029.9
2023-02-12T10:00:44.666Z,1029.9
2023-02-12T10:01:47.601Z,1029.9
2023-02-12T10:02:51.618Z,1029.8
2023-02-12T10:03:54.772Z,1029.8
2023-02-12T10:05:02.815Z,1029.8
2023-02-12T10:06:07.430Z,1029.8
2023-02-12T10:07:10.888Z,1029.8
2023-02-12T10:08:14.050Z,1029.8
2023-02-12T10:09:16.779Z,1029.8
2023-02-12T10:10:19.843Z,1029.8
2023-02-12T10:11:23.543Z,1029.8
2023-02-12T10:12:26.735Z,1029.8
2023-02-12T10:13:30.252Z,1029.8
2023-02-12T10:14:33.560Z,1029.8
2023-02-12T10:15:37.374Z,1029.9
2023-02-12T10:16:40.933Z,1029.9
2023-02-12T10:17:44.298Z,1029.8
2023-02-12T10:18:47.825Z,1029.8
2023-02-12T10:19:51.848Z,1029.9
2023-02-12T10:20:54.896Z,1029.9
2023-02-12T10:22:00.711Z,1029.9
2023-02-12T10:23:03.616Z,1029.8
2023-02-12T10:24:07.369Z,1029.9
2023-02-12T10:25:10.555Z,1029.8
2023-02-12T10:26:13.736Z,1029.8
2023-02-12T10:27:17.497Z,1029.8
2023-02-12T10:28:20.800Z,1029.7
2023-02-12T10:29:24.559Z,1029.7
2023-02-12T10:30:27.566Z,1029.7
2023-02-12T10:31:31.381Z,1029.7
2023-02-12T10:32:35.763Z,1029.7
2023-02-12T10:33:39.800Z,1029.7
2023-02-12T10:34:43.175Z,1029.7
2023-02-12T10:35:46.302Z,1029.7
2023-02-12T10:36:49.682Z,1029.7
2023-02-12T10:37:53.564Z,1029.7
2023-02-12T10:38:56.836Z,1029.7
2023-02-12T10:40:00.576Z,1029.7
2023-02-12T10:41:04.037Z,1029.7
2023-02-12T10:42:07.031Z,1029.8
2023-02-12T10:43:11.152Z,1029.7
2023-02-12T10:44:14.239Z,1029.8
2023-02-12T10:45:17.764Z,1029.8
2023-02-12T10:46:21.158Z,1029.7
2023-02-12T10:47:24.720Z,1029.8
2023-02-12T10:48:28.471Z,1029.8
2023-02-12T10:49:32.885Z,1029.7
2023-02-12T10:50:35.692Z,1029.8
2023-02-12T10:51:38.376Z,1029.7
2023-02-12T10:52:41.218Z,1029.7
2023-02-12T10:53:45.000Z,1029.7
2023-02-12T10:54:48.102Z,1029.8
2023-02-12T10:55:51.636Z,1029.8
2023-02-12T10:56:54.845Z,1029.8
2023-02-12T10:57:57.635Z,1029.7
2023-02-12T10:59:01.078Z,1029.8
2023-02-12T11:00:04.154Z,1029.8
2023-02-12T11:01:07.216Z,1029.7
2023-02-12T11:02:10.962Z,1029.7
2023-02-12T11:03:14.371Z,1029.7
2023-02-12T11:04:18.024Z,1029.7
2023-02-12T11:05:20.570Z,1029.8
2023-02-12T11:06:23.488Z,1029.8
2023-02-12T11:07:26.957Z,1029.7
2023-02-12T11:08:29.732Z,1029.7
2023-02-12T11:09:33.156Z,1029.7
2023-02-12T11:10:35.920Z,1029.8
2023-02-12T11:11:38.997Z,1029.8
2023-02-12T11:12:41.690Z,1029.7
2023-02-12T11:13:44.490Z,1029.7
2023-02-12T11:14:47.970Z,1029.7
2023-02-12T11:15:51.557Z,1029.7
2023-02-12T11:16:55.384Z,1029.7
2023-02-12T11:17:59.111Z,1029.7
2023-02-12T11:19:03.022Z,1029.7
2023-02-12T11:20:06.913Z,1029.7
2023-02-12T11:21:10.655Z,1029.6
2023-02-12T11:22:13.727Z,1029.7
2023-02-12T11:23:17.520Z,1029.6
2023-02-12T11:24:21.168Z,1029.6
2023-02-12T11:25:25.247Z,1029.7
2023-02-12T11:26:28.373Z,1029.6
2023-02-12T11:27:31.768Z,1029.7
2023-02-12T11:28:34.719Z,1029.6
2023-02-12T11:29:38.534Z,1029.6
2023-02-12T11:30:42.035Z,1029.6
2023-02-12T11:31:45.183Z,1029.6
2023-02-12T11:32:49.397Z,1029.6
2023-02-12T11:33:52.944Z,1029.6
2023-02-12T11:34:56.867Z,1029.5
2023-02-12T11:36:01.571Z,1029.5
2023-02-12T11:37:11.205Z,1029.5
2023-02-12T11:38:14.925Z,1029.5
2023-02-12T11:39:18.044Z,1029.5
2023-02-12T11:40:21.364Z,1029.5
2023-02-12T11:41:25.103Z,1029.5
2023-02-12T11:42:27.874Z,1029.5
2023-02-12T11:43:31.629Z,1029.5
2023-02-12T11:44:34.344Z,1029.4
2023-02-12T11:45:37.735Z,1029.4
2023-02-12T11:46:41.361Z,1029.5
2023-02-12T11:47:44.252Z,1029.5
2023-02-12T11:48:47.640Z,1029.5
2023-02-12T11:49:50.455Z,1029.5
2023-02-12T11:50:53.746Z,1029.5
2023-02-12T11:51:56.776Z,1029.5
2023-02-12T11:52:59.695Z,1029.5
2023-02-12T11:54:02.842Z,1029.5
2023-02-12T11:55:06.234Z,1029.5
2023-02-12T11:56:09.037Z,1029.4
2023-02-12T11:57:12.763Z,1029.4
2023-02-12T11:58:16.739Z,1029.4
2023-02-12T11:59:19.925Z,1029.4
2023-02-12T12:00:22.992Z,1029.4
2023-02-12T12:01:26.425Z,1029.4
2023-02-12T12:02:30.103Z,1029.4
2023-02-12T12:03:33.878Z,1029.3
2023-02-12T12:04:37.307Z,1029.3
2023-02-12T12:05:40.470Z,1029.3
2023-02-12T12:06:43.054Z,1029.3
2023-02-12T12:07:46.707Z,1029.3
2023-02-12T12:08:49.860Z,1029.3
2023-02-12T12:09:53.486Z,1029.3
2023-02-12T12:10:56.841Z,1029.3
2023-02-12T12:11:59.717Z,1029.3
2023-02-12T12:13:03.203Z,1029.4
2023-02-12T12:14:06.238Z,1029.3
2023-02-12T12:15:09.704Z,1029.4
2023-02-12T12:16:12.859Z,1029.3
2023-02-12T12:17:16.728Z,1029.3
2023-02-12T12:18:21.047Z,1029.3
2023-02-12T12:19:24.874Z,1029.3
2023-02-12T12:20:30.892Z,1029.3
2023-02-12T12:21:34.624Z,1029.2
2023-02-12T12:22:38.114Z,1029.3
2023-02-12T12:23:41.479Z,1029.2
2023-02-12T12:24:45.432Z,1029.2
2023-02-12T12:25:48.251Z,1029.3
2023-02-12T12:26:51.802Z,1029.2
2023-02-12T12:27:54.518Z,1029.3
2023-02-12T12:28:58.588Z,1029.3
2023-02-12T12:30:01.056Z,1029.3
2023-02-12T12:31:04.538Z,1029.3
2023-02-12T12:32:07.292Z,1029.3
2023-02-12T12:33:10.063Z,1029.3
2023-02-12T12:34:13.522Z,1029.3
2023-02-12T12:35:16.792Z,1029.3
2023-02-12T12:36:20.195Z,1029.3
2023-02-12T12:37:23.960Z,1029.3
2023-02-12T12:38:26.411Z,1029.3
2023-02-12T12:39:29.510Z,1029.4
2023-02-12T12:40:32.787Z,1029.3
2023-02-12T12:41:36.246Z,1029.3
2023-02-12T12:42:39.668Z,1029.3
2023-02-12T12:43:42.645Z,1029.3
2023-02-12T12:44:46.113Z,1029.3
2023-02-12T12:45:49.393Z,1029.4
2023-02-12T12:46:53.735Z,1029.3
2023-02-12T12:47:57.172Z,1029.3
2023-02-12T12:49:00.587Z,1029.4
2023-02-12T12:50:04.708Z,1029.3
2023-02-12T12:51:08.409Z,1029.4
2023-02-12T12:52:11.465Z,1029.3
2023-02-12T12:53:15.190Z,1029.4
2023-02-12T12:54:18.308Z,1029.3
2023-02-12T12:55:21.657Z,1029.3
2023-02-12T12:56:25.323Z,1029.3
2023-02-12T12:57:28.687Z,1029.3
2023-02-12T12:58:31.736Z,1029.2
2023-02-12T12:59:34.838Z,1029.3
2023-02-12T13:00:38.246Z,1029.3
2023-02-12T13:01:41.266Z,1029.3
2023-02-12T13:02:44.715Z,1029.3
2023-02-12T13:03:48.916Z,1029.3
2023-02-12T13:04:52.115Z,1029.2
2023-02-12T13:05:56.225Z,1029.2
2023-02-12T13:07:00.950Z,1029.3
2023-02-12T13:08:04.007Z,1029.3
2023-02-12T13:09:07.364Z,1029.3
2023-02-12T13:10:10.554Z,1029.3
2023-02-12T13:11:13.928Z,1029.2
2023-02-12T13:12:16.789Z,1029.2
2023-02-12T13:13:19.904Z,1029.2